Time;durP1;ratioP1;P1;durP2;ratioP2;P2;SDS_P1;SDS_P2;PMS_P1;PMS_P2;Temp;Humidity;BMP_temperature;BMP_pressure;BME280_temperature;BME280_humidity;BME280_pressure;Samples;Min_cycle;Max_cycle;Signal;HPM_P1;HPM_P2
2022/04/03 00:00:33;;;;;;;5.50;4.97;;;4.00;99.90;;;;;;5052321;28;20037;-70
2022/04/03 00:03:00;;;;;;;5.20;4.70;;;4.00;99.90;;;;;;5053887;28;20516;-69
2022/04/03 00:05:26;;;;;;;5.75;5.15;;;4.00;99.90;;;;;;5052267;28;21710;-69
2022/04/03 00:07:54;;;;;;;5.07;4.63;;;4.00;99.90;;;;;;5057851;28;20887;-69
2022/04/03 00:10:21;;;;;;;4.80;4.40;;;4.10;99.90;;;;;;5053960;28;20482;-69
2022/04/03 00:12:47;;;;;;;3.60;3.30;;;4.10;99.90;;;;;;5057448;28;20029;-69
2022/04/03 00:15:16;;;;;;;3.45;3.15;;;4.10;99.90;;;;;;5049332;28;20783;-69
2022/04/03 00:17:43;;;;;;;3.17;2.95;;;4.10;99.90;;;;;;5054243;28;20449;-69
2022/04/03 00:20:10;;;;;;;3.47;3.17;;;4.10;99.90;;;;;;5055370;28;20033;-69
2022/04/03 00:22:36;;;;;;;3.63;3.33;;;4.10;99.90;;;;;;5053005;28;20072;-69
2022/04/03 00:25:03;;;;;;;3.08;2.70;;;4.10;99.90;;;;;;5053849;28;20040;-69
2022/04/03 00:27:29;;;;;;;2.88;2.60;;;4.10;99.90;;;;;;5057309;28;20032;-69
2022/04/03 00:29:55;;;;;;;2.10;1.92;;;4.10;99.90;;;;;;5053535;28;20048;-69
2022/04/03 00:32:21;;;;;;;2.35;2.15;;;4.10;99.90;;;;;;5055960;28;20033;-69
2022/04/03 00:34:47;;;;;;;2.20;2.10;;;4.10;99.90;;;;;;5053681;28;20787;-70
2022/04/03 00:37:13;;;;;;;2.13;1.92;;;4.10;99.90;;;;;;5052134;28;20044;-69
2022/04/03 00:39:39;;;;;;;2.00;1.90;;;4.10;99.90;;;;;;5065111;28;20048;-69
2022/04/03 00:42:07;;;;;;;2.50;2.30;;;4.00;99.90;;;;;;5077995;28;20051;-69
2022/04/03 00:44:35;;;;;;;1.77;1.67;;;4.10;99.90;;;;;;5072224;28;20040;-69
2022/04/03 00:47:01;;;;;;;1.98;1.77;;;4.10;99.90;;;;;;5075383;28;20046;-69
2022/04/03 00:49:27;;;;;;;1.90;1.70;;;4.10;99.90;;;;;;5071703;28;20377;-69
2022/04/03 00:51:53;;;;;;;1.63;1.52;;;4.20;99.90;;;;;;5080285;28;20048;-69
2022/04/03 00:54:18;;;;;;;1.92;1.70;;;4.20;99.90;;;;;;5072211;28;20047;-69
2022/04/03 00:56:45;;;;;;;1.67;1.58;;;4.10;99.90;;;;;;5078301;28;20036;-69
2022/04/03 00:59:14;;;;;;;1.50;1.40;;;4.10;99.90;;;;;;5075434;28;20074;-69
2022/04/03 01:01:44;;;;;;;1.27;1.17;;;4.10;99.90;;;;;;5077141;28;20560;-69
2022/04/03 01:04:10;;;;;;;1.17;1.08;;;4.10;99.90;;;;;;5037793;28;20028;-69
2022/04/03 01:06:37;;;;;;;1.20;1.10;;;4.10;99.90;;;;;;5072991;28;20115;-69
2022/04/03 01:09:04;;;;;;;1.65;1.55;;;4.10;99.90;;;;;;5077873;28;20115;-69
2022/04/03 01:11:30;;;;;;;1.33;1.23;;;4.10;99.90;;;;;;5078906;28;20040;-69
2022/04/03 01:13:57;;;;;;;1.30;1.10;;;4.10;99.90;;;;;;5072120;28;20039;-69
2022/04/03 01:16:23;;;;;;;1.23;1.13;;;4.10;99.90;;;;;;5073415;28;20079;-69
2022/04/03 01:18:49;;;;;;;1.48;1.38;;;4.10;99.90;;;;;;5073415;28;20056;-69
2022/04/03 01:21:16;;;;;;;1.17;1.10;;;4.00;99.90;;;;;;5068807;28;20446;-69
2022/04/03 01:23:43;;;;;;;1.38;1.27;;;4.00;99.90;;;;;;5078525;28;20048;-69
2022/04/03 01:26:09;;;;;;;1.10;1.00;;;4.10;99.90;;;;;;5077045;28;20043;-69
2022/04/03 01:28:34;;;;;;;1.50;1.40;;;4.10;99.90;;;;;;5071204;28;20048;-69
2022/04/03 01:31:00;;;;;;;1.25;1.15;;;4.10;99.90;;;;;;5074113;28;20483;-69
2022/04/03 01:33:26;;;;;;;1.20;1.13;;;4.10;99.90;;;;;;5071022;28;20131;-69
2022/04/03 01:35:52;;;;;;;1.33;1.23;;;4.10;99.90;;;;;;5075525;28;20127;-69
2022/04/03 01:38:17;;;;;;;1.25;1.15;;;4.00;99.90;;;;;;5075093;28;20424;-69
2022/04/03 01:40:43;;;;;;;1.70;1.60;;;4.00;99.90;;;;;;5055924;28;20394;-69
2022/04/03 01:43:10;;;;;;;1.13;1.02;;;4.00;99.90;;;;;;5052762;28;20049;-69
2022/04/03 01:45:39;;;;;;;1.70;1.60;;;4.00;99.90;;;;;;5056129;28;20037;-69
2022/04/03 01:48:07;;;;;;;2.15;1.90;;;4.00;99.90;;;;;;5052242;28;20804;-69
2022/04/03 01:50:33;;;;;;;2.33;2.13;;;4.10;99.90;;;;;;5053743;28;20044;-69
2022/04/03 01:52:59;;;;;;;2.30;2.10;;;4.10;99.90;;;;;;5055374;28;20040;-69
2022/04/03 01:55:25;;;;;;;2.90;2.30;;;4.10;99.90;;;;;;5052838;28;20033;-69
2022/04/03 01:57:54;;;;;;;2.42;2.22;;;4.10;99.90;;;;;;5050037;28;20144;-69
2022/04/03 02:00:21;;;;;;;2.95;2.65;;;4.10;99.90;;;;;;5047675;28;20029;-69
2022/04/03 02:02:46;;;;;;;2.97;2.65;;;4.10;99.90;;;;;;5046182;28;20144;-69
2022/04/03 02:05:12;;;;;;;3.17;2.88;;;4.10;99.90;;;;;;5049460;28;20044;-69
2022/04/03 02:07:38;;;;;;;3.58;2.95;;;4.10;99.90;;;;;;5050037;28;20587;-69
2022/04/03 02:10:08;;;;;;;3.70;3.30;;;4.10;99.90;;;;;;5048272;28;20029;-69
2022/04/03 02:12:35;;;;;;;3.40;3.10;;;4.10;99.90;;;;;;5052517;28;20718;-69
2022/04/03 02:15:01;;;;;;;3.42;3.13;;;4.10;99.90;;;;;;5045947;28;20037;-69
2022/04/03 02:17:27;;;;;;;3.33;3.03;;;4.10;99.90;;;;;;5045195;28;20702;-69
2022/04/03 02:19:52;;;;;;;3.50;3.20;;;4.10;99.90;;;;;;5048279;28;20037;-69
2022/04/03 02:22:18;;;;;;;3.58;2.85;;;4.10;99.90;;;;;;5046575;28;20127;-69
2022/04/03 02:24:43;;;;;;;3.30;2.83;;;4.10;99.90;;;;;;5045302;28;20059;-69
2022/04/03 02:27:09;;;;;;;3.60;3.10;;;4.20;99.90;;;;;;5044615;28;20048;-69
2022/04/03 02:29:35;;;;;;;3.47;3.05;;;4.20;99.90;;;;;;5048974;28;20760;-69
2022/04/03 02:32:00;;;;;;;3.92;3.28;;;4.10;99.90;;;;;;5046590;28;20033;-69
2022/04/03 02:34:26;;;;;;;4.20;3.17;;;4.10;99.90;;;;;;5045877;28;20438;-69
2022/04/03 02:36:52;;;;;;;3.53;2.90;;;4.10;99.90;;;;;;5050421;28;20150;-69
2022/04/03 02:39:18;;;;;;;3.28;2.97;;;4.00;99.90;;;;;;5045490;28;20085;-69
2022/04/03 02:41:44;;;;;;;3.70;3.35;;;4.00;99.90;;;;;;5049964;28;20037;-69
2022/04/03 02:44:10;;;;;;;3.92;3.53;;;4.00;99.90;;;;;;5047235;28;20122;-69
2022/04/03 02:46:36;;;;;;;3.47;3.10;;;4.00;99.90;;;;;;5048956;28;20037;-69
2022/04/03 02:49:02;;;;;;;4.57;3.80;;;3.90;99.90;;;;;;5045177;28;24286;-69
2022/04/03 02:51:28;;;;;;;3.47;3.15;;;3.90;99.90;;;;;;5046518;28;20053;-69
2022/04/03 02:53:54;;;;;;;3.25;2.90;;;3.90;99.90;;;;;;5046129;28;20067;-69
2022/04/03 02:56:19;;;;;;;3.50;3.20;;;3.90;99.90;;;;;;5046433;28;20044;-69
2022/04/03 02:58:45;;;;;;;4.15;3.50;;;3.80;99.90;;;;;;5046458;28;20534;-69
2022/04/03 03:01:11;;;;;;;3.72;3.28;;;3.70;99.90;;;;;;5047682;28;20028;-69
2022/04/03 03:03:37;;;;;;;4.55;3.85;;;3.70;99.90;;;;;;5050736;28;20227;-69
2022/04/03 03:06:03;;;;;;;4.20;3.67;;;3.70;99.90;;;;;;5056197;28;20041;-69
2022/04/03 03:08:29;;;;;;;4.22;3.55;;;3.70;99.90;;;;;;5048596;28;20037;-68
2022/04/03 03:10:55;;;;;;;3.45;3.15;;;3.70;99.90;;;;;;5051378;28;20028;-69
2022/04/03 03:13:20;;;;;;;4.03;3.63;;;3.50;99.90;;;;;;5054905;28;20918;-69
2022/04/03 03:15:46;;;;;;;4.00;3.60;;;3.40;99.90;;;;;;5047865;28;20024;-69
2022/04/03 03:18:12;;;;;;;3.42;3.13;;;3.50;99.90;;;;;;5050771;28;20114;-69
2022/04/03 03:20:37;;;;;;;4.40;3.53;;;3.60;99.90;;;;;;5051849;28;20033;-68
2022/04/03 03:23:03;;;;;;;4.30;3.90;;;3.60;99.90;;;;;;5053515;28;20043;-69
2022/04/03 03:25:29;;;;;;;3.58;3.28;;;3.50;99.90;;;;;;5051037;28;20424;-69
2022/04/03 03:27:55;;;;;;;4.07;3.47;;;3.50;99.90;;;;;;5052940;28;20494;-69
2022/04/03 03:30:21;;;;;;;3.97;3.60;;;3.60;99.90;;;;;;5051028;28;20056;-69
2022/04/03 03:32:47;;;;;;;3.40;3.08;;;3.50;99.90;;;;;;5052154;28;20595;-68
2022/04/03 03:35:12;;;;;;;3.70;3.30;;;3.40;99.90;;;;;;5061451;28;20033;-69
2022/04/03 03:37:39;;;;;;;4.32;3.47;;;3.30;99.90;;;;;;5053151;28;20053;-69
2022/04/03 03:40:06;;;;;;;4.05;3.65;;;3.20;99.90;;;;;;5056404;28;20051;-69
2022/04/03 03:42:33;;;;;;;4.10;3.67;;;3.20;99.90;;;;;;5058387;28;20044;-68
2022/04/03 03:44:59;;;;;;;5.03;4.15;;;3.40;99.90;;;;;;5057935;28;20037;-68
2022/04/03 03:47:25;;;;;;;4.75;4.15;;;3.50;99.90;;;;;;5058931;28;20025;-68
2022/04/03 03:49:51;;;;;;;7.88;5.88;;;3.40;99.90;;;;;;5052980;28;20397;-68
2022/04/03 03:52:17;;;;;;;7.70;6.90;;;3.40;99.90;;;;;;5054851;28;20025;-68
2022/04/03 03:54:44;;;;;;;11.63;9.77;;;3.50;99.90;;;;;;5055587;28;20045;-68
2022/04/03 03:57:10;;;;;;;11.32;9.48;;;3.70;99.90;;;;;;5063330;28;20056;-68
2022/04/03 03:59:36;;;;;;;8.75;7.32;;;3.80;99.90;;;;;;5060732;28;20057;-68
2022/04/03 04:02:02;;;;;;;6.07;5.47;;;3.80;99.90;;;;;;5056150;28;20025;-68
2022/04/03 04:04:29;;;;;;;9.45;8.30;;;3.80;99.90;;;;;;5051986;28;20740;-69
2022/04/03 04:06:55;;;;;;;13.60;10.57;;;3.80;99.90;;;;;;5058286;28;20477;-69
2022/04/03 04:09:21;;;;;;;12.50;10.25;;;3.70;99.90;;;;;;5058233;28;20086;-68
2022/04/03 04:11:47;;;;;;;8.75;7.60;;;3.60;99.90;;;;;;5056291;28;20041;-68
2022/04/03 04:14:13;;;;;;;6.85;6.15;;;3.60;99.90;;;;;;5058224;28;20047;-68
2022/04/03 04:16:40;;;;;;;7.97;7.03;;;3.60;99.90;;;;;;5057972;28;20037;-68
2022/04/03 04:19:06;;;;;;;7.55;6.10;;;3.60;99.90;;;;;;5056058;28;20512;-68
2022/04/03 04:21:32;;;;;;;7.93;6.88;;;3.70;99.90;;;;;;5055440;28;20052;-68
2022/04/03 04:23:58;;;;;;;7.30;5.38;;;3.60;99.90;;;;;;5058799;28;21205;-69
2022/04/03 04:26:25;;;;;;;6.65;4.82;;;3.60;99.90;;;;;;5053287;28;20521;-68
2022/04/03 04:28:51;;;;;;;6.32;4.95;;;3.60;99.90;;;;;;5052600;28;20048;-68
2022/04/03 04:31:17;;;;;;;5.40;4.60;;;3.60;99.90;;;;;;5054456;28;20036;-68
2022/04/03 04:33:43;;;;;;;6.03;5.43;;;3.60;99.90;;;;;;5053012;28;20071;-69
2022/04/03 04:36:10;;;;;;;5.30;4.80;;;3.70;99.90;;;;;;5056917;28;20681;-68
2022/04/03 04:38:36;;;;;;;7.55;5.22;;;3.70;99.90;;;;;;5052295;28;20092;-69
2022/04/03 04:41:02;;;;;;;7.05;5.43;;;3.70;99.90;;;;;;5059275;28;20079;-69
2022/04/03 04:43:27;;;;;;;6.40;4.68;;;3.80;99.90;;;;;;5055055;28;20049;-69
2022/04/03 04:45:53;;;;;;;5.85;5.22;;;3.60;99.90;;;;;;5059298;28;20090;-68
2022/04/03 04:48:19;;;;;;;6.93;4.60;;;3.70;99.90;;;;;;5051544;28;20063;-69
2022/04/03 04:50:45;;;;;;;6.13;4.82;;;3.70;99.90;;;;;;5056681;28;20124;-68
2022/04/03 04:53:10;;;;;;;6.28;5.38;;;3.70;99.90;;;;;;5052859;28;20036;-69
2022/04/03 04:55:36;;;;;;;5.40;4.32;;;3.80;99.90;;;;;;5053200;28;20033;-69
2022/04/03 04:58:01;;;;;;;6.63;5.40;;;3.80;99.90;;;;;;5052443;28;20065;-69
2022/04/03 05:00:29;;;;;;;7.43;5.32;;;3.90;99.90;;;;;;5056748;28;20137;-69
2022/04/03 05:02:54;;;;;;;6.07;5.47;;;3.90;99.90;;;;;;5053711;28;20048;-68
2022/04/03 05:05:24;;;;;;;8.10;5.43;;;3.90;99.90;;;;;;5057234;28;20044;-69
2022/04/03 05:07:58;;;;;;;5.75;4.63;;;3.90;99.90;;;;;;5049532;28;20111;-69
2022/04/03 05:10:25;;;;;;;5.32;4.82;;;4.00;99.90;;;;;;5055672;28;21197;-69
2022/04/03 05:12:52;;;;;;;7.63;4.82;;;4.10;99.90;;;;;;5054607;28;20048;-68
2022/04/03 05:15:18;;;;;;;5.70;5.00;;;4.10;99.90;;;;;;5057877;28;20041;-69
2022/04/03 05:17:45;;;;;;;5.15;4.22;;;4.10;99.90;;;;;;5057200;28;20786;-69
2022/04/03 05:20:12;;;;;;;5.00;4.50;;;4.10;99.90;;;;;;5053907;28;20044;-69
2022/04/03 05:22:39;;;;;;;7.70;5.82;;;4.10;99.90;;;;;;5048695;28;20195;-68
2022/04/03 05:25:05;;;;;;;5.80;5.20;;;3.90;99.90;;;;;;5057758;28;20051;-68
2022/04/03 05:27:32;;;;;;;6.57;5.57;;;3.70;99.90;;;;;;5052849;28;20048;-69
2022/04/03 05:29:58;;;;;;;6.28;5.10;;;3.60;99.90;;;;;;5058499;28;20441;-69
2022/04/03 05:32:28;;;;;;;5.82;5.03;;;3.50;99.90;;;;;;5052738;28;20029;-68
2022/04/03 05:34:55;;;;;;;6.20;5.13;;;3.50;99.90;;;;;;5054703;28;20102;-68
2022/04/03 05:37:22;;;;;;;19.25;14.45;;;3.50;99.90;;;;;;5049861;28;20556;-68
2022/04/03 05:39:48;;;;;;;8.27;6.38;;;3.40;99.90;;;;;;5063020;28;20144;-69
2022/04/03 05:42:14;;;;;;;9.30;6.32;;;3.40;99.90;;;;;;5059363;28;20115;-68
2022/04/03 05:44:40;;;;;;;6.90;5.72;;;3.60;99.90;;;;;;5052991;28;20152;-68
2022/04/03 05:47:06;;;;;;;6.85;6.00;;;3.60;99.90;;;;;;5053575;28;20043;-68
2022/04/03 05:49:31;;;;;;;6.13;5.05;;;3.40;99.90;;;;;;5055969;28;20045;-68
2022/04/03 05:51:57;;;;;;;6.03;4.80;;;3.40;99.90;;;;;;5054924;28;20036;-68
2022/04/03 05:54:23;;;;;;;6.72;5.30;;;3.50;99.90;;;;;;5050269;28;20497;-68
2022/04/03 05:56:49;;;;;;;5.55;4.32;;;3.60;99.90;;;;;;5057691;28;20125;-68
2022/04/03 05:59:15;;;;;;;5.55;4.60;;;3.70;99.90;;;;;;5054460;28;20763;-68
2022/04/03 06:01:41;;;;;;;6.38;4.07;;;3.70;99.90;;;;;;5054228;28;20036;-68
2022/04/03 06:04:06;;;;;;;5.25;4.35;;;3.80;99.90;;;;;;5050087;28;20045;-68
2022/04/03 06:06:32;;;;;;;8.95;7.47;;;3.90;99.90;;;;;;5054720;28;20506;-69
2022/04/03 06:08:58;;;;;;;5.25;4.75;;;3.80;99.90;;;;;;5049548;28;20075;-68
2022/04/03 06:11:23;;;;;;;5.45;4.88;;;3.80;99.90;;;;;;5046888;28;20037;-68
2022/04/03 06:13:49;;;;;;;6.10;4.28;;;3.70;99.90;;;;;;5055978;28;20040;-68
2022/04/03 06:16:15;;;;;;;7.70;7.00;;;3.70;99.90;;;;;;5053510;28;20243;-68
2022/04/03 06:18:41;;;;;;;6.55;5.63;;;3.60;99.90;;;;;;5049946;28;20510;-68
2022/04/03 06:21:08;;;;;;;6.32;4.70;;;3.60;99.90;;;;;;5051888;28;20631;-69
2022/04/03 06:23:33;;;;;;;5.82;4.38;;;3.80;99.90;;;;;;5053656;28;20029;-68
2022/04/03 06:25:59;;;;;;;5.32;4.78;;;3.90;99.90;;;;;;5054278;28;20041;-68
2022/04/03 06:28:25;;;;;;;8.52;6.88;;;4.10;99.90;;;;;;5051259;28;20037;-68
2022/04/03 06:30:52;;;;;;;5.82;5.10;;;4.20;99.90;;;;;;5049988;28;20037;-68
2022/04/03 06:33:18;;;;;;;5.53;5.03;;;4.20;99.90;;;;;;5048939;28;20181;-68
2022/04/03 06:35:45;;;;;;;4.20;3.70;;;4.10;99.90;;;;;;5050491;28;20051;-68
2022/04/03 06:38:11;;;;;;;4.10;3.63;;;4.10;99.90;;;;;;5050935;28;20067;-68
2022/04/03 06:40:39;;;;;;;9.68;7.93;;;4.00;99.90;;;;;;5052299;28;20045;-68
2022/04/03 06:43:04;;;;;;;16.13;10.18;;;4.20;99.90;;;;;;5052815;28;20357;-68
2022/04/03 06:45:31;;;;;;;13.18;9.23;;;4.40;99.90;;;;;;5056792;28;20043;-68
2022/04/03 06:47:57;;;;;;;10.20;8.52;;;4.60;99.90;;;;;;5054040;28;20095;-69
2022/04/03 06:50:23;;;;;;;16.33;12.77;;;4.80;99.90;;;;;;5053306;28;20032;-68
2022/04/03 06:52:49;;;;;;;41.38;28.02;;;4.80;99.90;;;;;;5052040;28;20072;-68
2022/04/03 06:55:15;;;;;;;38.55;23.58;;;4.90;99.90;;;;;;5051021;28;20103;-68
2022/04/03 06:57:41;;;;;;;30.52;17.73;;;5.00;99.90;;;;;;5050732;28;20060;-68
2022/04/03 07:00:08;;;;;;;11.82;8.60;;;5.00;99.90;;;;;;5051929;28;20024;-69
2022/04/03 07:02:34;;;;;;;8.30;6.97;;;4.90;99.90;;;;;;5053595;28;20128;-68
2022/04/03 07:05:00;;;;;;;12.68;8.82;;;4.80;99.90;;;;;;5048503;28;20033;-68
2022/04/03 07:07:26;;;;;;;12.25;10.55;;;4.80;99.90;;;;;;5057454;28;20419;-68
2022/04/03 07:09:52;;;;;;;12.77;9.60;;;4.60;99.90;;;;;;5055150;28;20024;-68
2022/04/03 07:12:19;;;;;;;11.80;9.70;;;4.50;99.90;;;;;;5052740;28;20033;-68
2022/04/03 07:14:45;;;;;;;10.05;8.13;;;4.50;99.90;;;;;;5057126;28;20619;-68
2022/04/03 07:17:10;;;;;;;11.13;9.70;;;4.40;99.90;;;;;;5054794;28;20056;-68
2022/04/03 07:19:36;;;;;;;9.43;7.47;;;4.40;99.90;;;;;;5054259;28;20098;-68
2022/04/03 07:22:02;;;;;;;16.42;11.50;;;4.50;99.90;;;;;;5060893;28;20086;-68
2022/04/03 07:24:28;;;;;;;11.25;8.20;;;4.40;99.90;;;;;;5047658;28;20148;-68
2022/04/03 07:26:54;;;;;;;7.97;6.57;;;4.40;99.90;;;;;;5049904;28;20041;-68
2022/04/03 07:29:21;;;;;;;26.13;11.38;;;4.40;99.90;;;;;;5040840;28;20040;-69
2022/04/03 07:31:46;;;;;;;15.57;11.50;;;4.50;99.90;;;;;;5055395;28;20048;-68
2022/04/03 07:34:12;;;;;;;8.68;7.28;;;4.70;99.90;;;;;;5043709;28;20048;-69
2022/04/03 07:36:38;;;;;;;11.77;8.20;;;4.80;99.90;;;;;;5050889;28;20445;-69
2022/04/03 07:39:04;;;;;;;17.27;11.25;;;4.90;99.90;;;;;;5057173;28;20138;-68
2022/04/03 07:41:29;;;;;;;12.30;8.27;;;5.00;99.90;;;;;;5052010;28;20544;-69
2022/04/03 07:43:55;;;;;;;11.23;8.30;;;5.10;99.90;;;;;;5053085;28;20052;-68
2022/04/03 07:46:21;;;;;;;9.05;7.28;;;5.30;99.90;;;;;;5051201;28;20783;-68
2022/04/03 07:48:47;;;;;;;10.10;7.95;;;5.40;99.90;;;;;;5052609;28;20029;-69
2022/04/03 07:51:13;;;;;;;10.68;8.85;;;5.60;99.90;;;;;;5050783;28;20072;-68
2022/04/03 07:53:39;;;;;;;10.32;8.20;;;5.70;99.90;;;;;;5050096;28;20966;-69
2022/04/03 07:56:05;;;;;;;8.63;7.22;;;5.80;99.90;;;;;;5057177;28;20048;-68
2022/04/03 07:58:32;;;;;;;12.40;7.75;;;5.60;99.90;;;;;;5055964;28;20052;-68
2022/04/03 08:00:58;;;;;;;8.32;6.30;;;5.40;99.90;;;;;;5050433;28;20074;-68
2022/04/03 08:03:25;;;;;;;8.05;6.50;;;5.10;99.90;;;;;;5054289;28;20311;-68
2022/04/03 08:05:51;;;;;;;9.23;7.35;;;4.90;99.90;;;;;;5057048;28;20035;-68
2022/04/03 08:08:17;;;;;;;10.63;7.07;;;4.80;99.90;;;;;;5054094;28;20041;-68
2022/04/03 08:10:42;;;;;;;8.52;7.63;;;4.80;99.90;;;;;;5052116;28;20086;-68
2022/04/03 08:13:08;;;;;;;8.93;6.85;;;4.90;99.90;;;;;;5055409;28;20111;-68
2022/04/03 08:15:34;;;;;;;12.40;8.60;;;4.80;99.90;;;;;;5058715;28;20575;-69
2022/04/03 08:18:00;;;;;;;9.50;7.00;;;4.90;99.90;;;;;;5062537;28;20060;-68
2022/04/03 08:20:26;;;;;;;8.52;6.82;;;5.30;99.90;;;;;;5051280;28;20029;-68
2022/04/03 08:22:51;;;;;;;10.45;8.82;;;5.30;99.90;;;;;;5056697;28;20040;-68
2022/04/03 08:25:18;;;;;;;9.07;7.22;;;5.40;99.90;;;;;;5056307;28;20090;-69
2022/04/03 08:27:50;;;;;;;12.80;10.77;;;5.60;99.90;;;;;;5055859;28;20482;-68
2022/04/03 08:30:22;;;;;;;19.33;14.05;;;5.70;99.90;;;;;;5056182;28;20067;-69
2022/04/03 08:32:49;;;;;;;19.40;12.70;;;5.80;99.90;;;;;;5052651;28;20615;-68
2022/04/03 08:35:15;;;;;;;110.05;94.82;;;6.00;99.50;;;;;;5055975;28;20060;-69
2022/04/03 08:37:42;;;;;;;10.40;8.70;;;6.00;99.60;;;;;;5049844;28;20054;-69
2022/04/03 08:40:09;;;;;;;8.88;7.00;;;6.00;99.60;;;;;;5052658;28;20443;-68
2022/04/03 08:42:35;;;;;;;12.02;7.43;;;6.10;98.70;;;;;;5021770;28;20064;-69
2022/04/03 08:45:02;;;;;;;8.93;7.68;;;6.10;96.90;;;;;;5056557;28;20079;-68
2022/04/03 08:47:29;;;;;;;10.48;7.60;;;5.90;97.80;;;;;;5054843;28;20032;-69
2022/04/03 08:49:59;;;;;;;9.57;7.72;;;6.00;96.70;;;;;;5054693;28;20043;-68
2022/04/03 08:52:27;;;;;;;16.52;8.73;;;5.80;95.00;;;;;;5047649;28;20029;-68
2022/04/03 08:54:53;;;;;;;13.65;8.05;;;5.60;95.50;;;;;;5044309;28;20066;-68
2022/04/03 08:57:20;;;;;;;10.90;8.07;;;5.60;97.60;;;;;;5031135;28;20044;-68
2022/04/03 08:59:46;;;;;;;10.20;7.47;;;5.60;95.30;;;;;;5065340;28;20750;-68
2022/04/03 09:02:14;;;;;;;11.85;8.32;;;5.70;96.30;;;;;;5057542;28;20037;-68
2022/04/03 09:04:40;;;;;;;12.77;9.30;;;5.80;96.80;;;;;;5061126;28;20040;-68
2022/04/03 09:07:06;;;;;;;12.85;9.02;;;6.00;98.00;;;;;;5060449;28;20038;-68
2022/04/03 09:09:32;;;;;;;13.10;9.02;;;6.10;96.90;;;;;;5053795;28;20401;-68
2022/04/03 09:12:12;;;;;;;11.25;8.77;;;6.20;97.70;;;;;;5047121;28;20143;-68
2022/04/03 09:14:52;;;;;;;10.93;8.23;;;6.20;95.90;;;;;;5056337;28;20075;-68
2022/04/03 09:17:44;;;;;;;10.13;8.65;;;6.10;96.00;;;;;;5050348;28;20052;-68
2022/04/03 09:20:15;;;;;;;10.70;8.75;;;6.10;96.90;;;;;;5052350;28;20555;-68
2022/04/03 09:22:43;;;;;;;12.65;8.85;;;6.00;96.00;;;;;;5051066;28;20033;-68
2022/04/03 09:25:11;;;;;;;17.10;8.77;;;5.90;95.80;;;;;;5049901;28;20049;-68
2022/04/03 09:27:52;;;;;;;11.45;8.50;;;5.80;95.90;;;;;;5057321;28;20040;-68
2022/04/03 09:30:20;;;;;;;12.77;8.98;;;5.60;96.70;;;;;;5053178;28;20041;-68
2022/04/03 09:32:48;;;;;;;11.68;8.68;;;5.70;97.10;;;;;;5052651;28;20079;-67
2022/04/03 09:35:16;;;;;;;12.40;9.25;;;5.80;96.80;;;;;;5057387;28;20029;-68
2022/04/03 09:38:07;;;;;;;13.77;8.90;;;5.80;98.10;;;;;;5054744;28;20101;-68
2022/04/03 09:40:34;;;;;;;12.30;8.75;;;5.90;97.50;;;;;;5053222;28;20509;-68
2022/04/03 09:43:12;;;;;;;13.55;9.50;;;6.00;96.80;;;;;;5052689;28;20040;-67
2022/04/03 09:45:59;;;;;;;12.85;8.70;;;5.90;96.80;;;;;;5051028;28;20040;-67
2022/04/03 09:48:39;;;;;;;11.15;9.32;;;5.80;96.70;;;;;;5049776;28;20071;-69
2022/04/03 09:51:10;;;;;;;12.07;8.68;;;5.80;97.40;;;;;;5047422;28;20434;-68
2022/04/03 09:53:48;;;;;;;10.98;8.73;;;5.90;96.80;;;;;;5047152;28;20024;-69
2022/04/03 09:56:24;;;;;;;12.73;8.20;;;5.70;96.60;;;;;;5051024;28;20123;-69
2022/04/03 09:58:50;;;;;;;10.23;7.93;;;5.70;96.90;;;;;;5048592;28;20078;-68
2022/04/03 10:01:40;;;;;;;11.38;7.53;;;5.70;98.20;;;;;;5046017;28;20037;-69
2022/04/03 10:04:06;;;;;;;12.40;7.80;;;5.90;96.20;;;;;;5048071;28;20075;-68
2022/04/03 10:06:34;;;;;;;11.30;8.02;;;5.90;97.40;;;;;;5047030;28;20032;-68
2022/04/03 10:09:00;;;;;;;10.40;7.68;;;5.90;96.50;;;;;;5043162;28;20040;-68
2022/04/03 10:11:27;;;;;;;15.65;7.97;;;6.00;96.90;;;;;;5042171;28;20025;-69
2022/04/03 10:13:53;;;;;;;11.10;7.85;;;6.00;96.20;;;;;;5047811;28;20063;-68
2022/04/03 10:16:21;;;;;;;10.27;7.90;;;6.00;96.40;;;;;;5047303;28;20489;-69
2022/04/03 10:18:48;;;;;;;13.77;7.20;;;6.00;94.90;;;;;;5048179;28;20513;-69
2022/04/03 10:21:30;;;;;;;13.05;7.93;;;6.00;94.90;;;;;;5052587;28;20593;-68
2022/04/03 10:24:03;;;;;;;12.48;7.65;;;5.90;94.60;;;;;;5048367;28;20067;-69
2022/04/03 10:26:35;;;;;;;10.45;8.02;;;5.80;94.70;;;;;;5044367;28;20427;-68
2022/04/03 10:29:04;;;;;;;11.73;8.85;;;5.60;93.70;;;;;;5050510;28;20037;-69
2022/04/03 10:31:30;;;;;;;12.15;8.50;;;5.50;96.30;;;;;;5052335;28;20715;-68
2022/04/03 10:33:55;;;;;;;10.27;7.90;;;5.50;95.00;;;;;;5045305;28;20045;-69
2022/04/03 10:36:26;;;;;;;13.02;7.65;;;5.60;96.60;;;;;;5054171;28;20570;-68
2022/04/03 10:39:09;;;;;;;12.03;8.17;;;5.70;94.70;;;;;;5052648;28;20152;-69
2022/04/03 10:41:39;;;;;;;;;;;5.70;94.90;;;;;;5051792;28;20020;-69
2022/04/03 10:44:14;;;;;;;12.98;7.70;;;5.80;95.90;;;;;;5055419;28;19916;-68
2022/04/03 10:47:04;;;;;;;10.75;7.85;;;5.90;95.40;;;;;;5050363;28;20614;-69
2022/04/03 10:49:46;;;;;;;8.98;7.95;;;5.90;94.40;;;;;;5052876;28;20028;-68
2022/04/03 10:52:27;;;;;;;12.98;9.15;;;5.80;96.60;;;;;;5056787;28;20036;-69
2022/04/03 10:54:57;;;;;;;18.30;7.70;;;5.90;94.20;;;;;;5051570;28;20040;-67
2022/04/03 10:57:43;;;;;;;10.52;7.45;;;5.90;94.70;;;;;;5058096;28;20505;-68
2022/04/03 11:00:12;;;;;;;11.43;7.90;;;6.00;94.50;;;;;;5015044;28;20044;-69
2022/04/03 11:02:42;;;;;;;14.48;9.13;;;6.10;95.20;;;;;;5054997;28;20037;-70
2022/04/03 11:05:29;;;;;;;10.35;8.00;;;6.20;96.10;;;;;;5051190;28;20040;-68
2022/04/03 11:08:00;;;;;;;10.05;7.68;;;6.40;94.00;;;;;;5053230;28;20051;-69
2022/04/03 11:10:54;;;;;;;13.25;8.48;;;6.50;93.20;;;;;;5052229;28;20386;-70
2022/04/03 11:13:22;;;;;;;11.65;8.00;;;6.30;94.80;;;;;;5047801;28;20033;-69
2022/04/03 11:15:55;;;;;;;9.50;7.60;;;6.30;93.40;;;;;;5048624;28;20048;-69
2022/04/03 11:18:47;;;;;;;9.18;7.38;;;6.20;93.00;;;;;;5042484;28;20477;-69
2022/04/03 11:21:19;;;;;;;9.40;7.47;;;6.20;94.00;;;;;;5053555;28;20075;-72
2022/04/03 11:24:00;;;;;;;10.18;7.22;;;6.40;94.40;;;;;;5046128;28;20409;-69
2022/04/03 11:26:26;;;;;;;9.83;7.40;;;6.60;93.90;;;;;;5052960;28;20037;-70
2022/04/03 11:28:52;;;;;;;11.10;7.70;;;6.80;94.00;;;;;;5051244;28;20282;-69
2022/04/03 11:31:18;;;;;;;9.55;7.70;;;7.00;93.00;;;;;;5050604;28;20064;-69
2022/04/03 11:33:46;;;;;;;10.18;8.18;;;7.10;92.80;;;;;;5046852;28;22378;-70
2022/04/03 11:36:20;;;;;;;13.38;8.73;;;7.10;93.00;;;;;;5047256;28;20052;-70
2022/04/03 11:38:47;;;;;;;10.05;7.10;;;7.20;92.40;;;;;;5047592;28;20045;-69
2022/04/03 11:41:20;;;;;;;10.40;7.40;;;7.30;92.00;;;;;;5052631;28;20069;-69
2022/04/03 11:44:03;;;;;;;9.48;7.35;;;7.10;90.40;;;;;;5054387;28;20053;-70
2022/04/03 11:46:30;;;;;;;8.80;6.88;;;7.10;91.90;;;;;;5049211;28;20037;-70
2022/04/03 11:48:56;;;;;;;9.32;6.75;;;7.10;90.90;;;;;;5054499;28;20032;-69
2022/04/03 11:51:23;;;;;;;10.77;7.15;;;7.20;90.60;;;;;;5053639;28;20037;-68
2022/04/03 11:54:00;;;;;;;8.60;6.60;;;7.20;88.80;;;;;;5044799;28;20135;-67
2022/04/03 11:56:31;;;;;;;10.80;7.43;;;7.50;90.30;;;;;;5054522;28;20032;-67
2022/04/03 11:58:57;;;;;;;8.65;6.90;;;7.60;90.20;;;;;;5051604;28;20040;-67
2022/04/03 12:01:25;;;;;;;9.52;7.07;;;7.60;86.50;;;;;;5054558;28;20052;-68
2022/04/03 12:04:08;;;;;;;10.43;6.93;;;7.80;88.30;;;;;;5051601;28;20033;-68
2022/04/03 12:06:34;;;;;;;8.85;7.03;;;7.90;88.30;;;;;;5053257;28;20037;-67
2022/04/03 12:09:04;;;;;;;9.25;7.90;;;7.90;86.80;;;;;;5053050;28;20048;-67
2022/04/03 12:11:30;;;;;;;10.00;6.60;;;7.70;86.70;;;;;;5058142;28;20766;-67
2022/04/03 12:14:00;;;;;;;8.13;6.82;;;7.60;87.70;;;;;;5051903;28;20039;-68
2022/04/03 12:16:33;;;;;;;11.50;7.00;;;7.60;87.40;;;;;;5054566;28;20127;-67
2022/04/03 12:19:00;;;;;;;7.43;6.63;;;7.70;87.00;;;;;;5051831;28;20416;-67
2022/04/03 12:21:46;;;;;;;9.93;6.20;;;7.90;89.60;;;;;;5045559;28;20032;-66
2022/04/03 12:24:29;;;;;;;12.18;6.32;;;8.00;82.90;;;;;;5053338;28;20027;-66
2022/04/03 12:27:14;;;;;;;7.57;6.80;;;8.00;83.10;;;;;;5051870;28;20044;-67
2022/04/03 12:29:42;;;;;;;9.52;6.75;;;8.00;85.50;;;;;;5050076;28;20028;-67
2022/04/03 12:32:12;;;;;;;8.73;6.65;;;7.80;79.20;;;;;;5055929;28;20041;-66
2022/04/03 12:34:40;;;;;;;7.78;6.05;;;7.60;82.90;;;;;;5050468;28;20044;-67
2022/04/03 12:37:07;;;;;;;7.35;6.65;;;7.50;80.50;;;;;;5050011;28;20025;-67
2022/04/03 12:39:40;;;;;;;7.63;6.32;;;7.40;83.80;;;;;;5058400;28;20305;-67
2022/04/03 12:42:09;;;;;;;9.98;7.45;;;7.30;81.10;;;;;;5056516;28;20068;-67
2022/04/03 12:45:05;;;;;;;9.65;6.30;;;7.20;84.30;;;;;;5050482;28;20052;-67
2022/04/03 12:47:44;;;;;;;10.65;7.03;;;7.20;82.80;;;;;;5053828;28;20048;-67
2022/04/03 12:50:11;;;;;;;8.27;6.25;;;7.00;82.40;;;;;;5029693;28;20068;-66
2022/04/03 12:52:49;;;;;;;8.10;6.57;;;7.00;82.10;;;;;;5043794;28;20530;-66
2022/04/03 12:55:23;;;;;;;7.22;6.05;;;6.90;82.90;;;;;;5050250;28;20037;-66
2022/04/03 13:01:00;;;;;;;8.13;6.63;;;6.90;82.00;;;;;;5046587;28;20228;-68